Archival Weather

Norman Y Mineta San Jose Intl

San Jose, California (KSJC)

Report from: Sunday, February 11, 2024 2:53 PM PST
Current time: Monday, June 24, 2024 2:11 AM PDT

Current weather – Weather history – Daily summaries
Weather forecast

Temperature17.2°C (63.0°F)
Dew point4.4°C (39.9°F)
Winds 8 kts (4.1 m/s, 9.2 mph) Northwest (320°)
Visibility10 mi. (16.1 km)
Clouds Few clouds 1,800 ft. (549 m)
Scattered clouds 15,000 ft. (4,572 m)
Ceiling: Broken clouds 25,000 ft. (7,620 m)
Altimeter30.18 in.Hg (1022 mB)
Relative humidity43 %
Density altitude92 ft. (28 m)
Sea-level pressure102.2 kPa (1022 mB, 30.18 in.Hg)
Remarks Automated weather observing station with precipitation discriminator
Flight conditions Visual Meteorological Conditions
Raw dataKSJC 112253Z 32008KT 10SM FEW018 SCT150 BKN250 17/04 A3018 RMK AO2 SLP219 T01720044
An error has occurred. This application may no longer respond until reloaded. Reload 🗙